sensor_id;sensor_type;location;lat;lon;timestamp;P1;durP1;ratioP1;P2;durP2;ratioP2
1887;SDS011;944;51.574;6.980;2022-09-09T03:04:44;7.20;;;2.20;;
1887;SDS011;944;51.574;6.980;2022-09-09T03:08:09;2.30;;;1.60;;
1887;SDS011;944;51.574;6.980;2022-09-09T03:14:40;5.10;;;1.70;;
1887;SDS011;944;51.574;6.980;2022-09-09T03:17:18;3.70;;;1.63;;
1887;SDS011;944;51.574;6.980;2022-09-09T03:22:59;4.37;;;1.67;;
1887;SDS011;944;51.574;6.980;2022-09-09T03:35:53;3.07;;;1.50;;
1887;SDS011;944;51.574;6.980;2022-09-09T03:38:46;4.80;;;1.80;;
1887;SDS011;944;51.574;6.980;2022-09-09T03:41:54;7.53;;;2.13;;
1887;SDS011;944;51.574;6.980;2022-09-09T03:44:23;7.30;;;2.20;;
1887;SDS011;944;51.574;6.980;2022-09-09T03:47:24;4.67;;;2.00;;
1887;SDS011;944;51.574;6.980;2022-09-09T03:50:07;8.30;;;2.47;;
1887;SDS011;944;51.574;6.980;2022-09-09T03:55:26;4.23;;;2.20;;
1887;SDS011;944;51.574;6.980;2022-09-09T03:58:21;6.03;;;2.47;;
1887;SDS011;944;51.574;6.980;2022-09-09T04:01:15;7.20;;;2.33;;
1887;SDS011;944;51.574;6.980;2022-09-09T04:04:12;5.03;;;2.10;;
1887;SDS011;944;51.574;6.980;2022-09-09T04:06:57;4.90;;;2.40;;
1887;SDS011;944;51.574;6.980;2022-09-09T04:09:25;4.03;;;2.67;;
1887;SDS011;944;51.574;6.980;2022-09-09T04:11:52;9.87;;;3.00;;
1887;SDS011;944;51.574;6.980;2022-09-09T04:14:19;8.63;;;3.00;;
1887;SDS011;944;51.574;6.980;2022-09-09T04:16:47;5.13;;;2.57;;
1887;SDS011;944;51.574;6.980;2022-09-09T04:55:21;12.33;;;3.60;;
1887;SDS011;944;51.574;6.980;2022-09-09T05:05:02;8.47;;;2.70;;
1887;SDS011;944;51.574;6.980;2022-09-09T05:07:40;5.93;;;2.33;;
1887;SDS011;944;51.574;6.980;2022-09-09T05:10:29;8.40;;;2.83;;
1887;SDS011;944;51.574;6.980;2022-09-09T05:13:02;9.73;;;2.60;;
1887;SDS011;944;51.574;6.980;2022-09-09T05:15:35;5.10;;;2.50;;
1887;SDS011;944;51.574;6.980;2022-09-09T05:18:15;7.13;;;2.20;;
1887;SDS011;944;51.574;6.980;2022-09-09T05:20:43;7.33;;;2.47;;
1887;SDS011;944;51.574;6.980;2022-09-09T05:23:13;5.37;;;2.40;;
1887;SDS011;944;51.574;6.980;2022-09-09T05:26:07;6.27;;;2.10;;
1887;SDS011;944;51.574;6.980;2022-09-09T05:32:23;7.03;;;2.10;;
1887;SDS011;944;51.574;6.980;2022-09-09T05:34:50;8.43;;;2.77;;
1887;SDS011;944;51.574;6.980;2022-09-09T05:37:18;6.33;;;2.13;;
1887;SDS011;944;51.574;6.980;2022-09-09T05:39:48;9.73;;;2.40;;
1887;SDS011;944;51.574;6.980;2022-09-09T05:42:17;7.93;;;2.20;;
1887;SDS011;944;51.574;6.980;2022-09-09T05:44:44;7.70;;;2.30;;
1887;SDS011;944;51.574;6.980;2022-09-09T05:47:12;4.90;;;2.37;;
1887;SDS011;944;51.574;6.980;2022-09-09T05:49:40;6.60;;;2.57;;
1887;SDS011;944;51.574;6.980;2022-09-09T05:52:07;8.80;;;2.70;;
1887;SDS011;944;51.574;6.980;2022-09-09T05:54:34;8.13;;;2.20;;
1887;SDS011;944;51.574;6.980;2022-09-09T05:57:02;15.77;;;2.63;;
1887;SDS011;944;51.574;6.980;2022-09-09T05:59:34;10.13;;;2.23;;
1887;SDS011;944;51.574;6.980;2022-09-09T06:02:07;8.73;;;2.60;;
1887;SDS011;944;51.574;6.980;2022-09-09T06:08:18;13.20;;;2.90;;
1887;SDS011;944;51.574;6.980;2022-09-09T06:11:04;5.10;;;2.40;;
1887;SDS011;944;51.574;6.980;2022-09-09T06:20:16;6.00;;;2.50;;
1887;SDS011;944;51.574;6.980;2022-09-09T06:22:46;8.33;;;2.77;;
1887;SDS011;944;51.574;6.980;2022-09-09T06:25:24;13.83;;;2.73;;
1887;SDS011;944;51.574;6.980;2022-09-09T06:28:03;11.77;;;2.23;;
1887;SDS011;944;51.574;6.980;2022-09-09T06:30:48;8.87;;;2.23;;
1887;SDS011;944;51.574;6.980;2022-09-09T06:33:52;9.53;;;2.90;;
1887;SDS011;944;51.574;6.980;2022-09-09T06:36:27;12.83;;;4.20;;
1887;SDS011;944;51.574;6.980;2022-09-09T06:39:11;11.80;;;3.13;;
1887;SDS011;944;51.574;6.980;2022-09-09T06:41:43;12.97;;;4.10;;
1887;SDS011;944;51.574;6.980;2022-09-09T06:44:13;15.60;;;3.63;;
1887;SDS011;944;51.574;6.980;2022-09-09T06:46:42;9.73;;;3.27;;
1887;SDS011;944;51.574;6.980;2022-09-09T06:49:13;9.27;;;2.73;;
1887;SDS011;944;51.574;6.980;2022-09-09T06:51:50;15.37;;;3.23;;
1887;SDS011;944;51.574;6.980;2022-09-09T06:54:23;13.57;;;3.00;;
1887;SDS011;944;51.574;6.980;2022-09-09T08:01:50;7.67;;;1.90;;
1887;SDS011;944;51.574;6.980;2022-09-09T12:46:14;4.93;;;1.70;;
1887;SDS011;944;51.574;6.980;2022-09-09T12:49:48;3.13;;;1.53;;
1887;SDS011;944;51.574;6.980;2022-09-09T12:52:29;2.30;;;1.40;;
1887;SDS011;944;51.574;6.980;2022-09-09T12:59:21;3.60;;;1.50;;
1887;SDS011;944;51.574;6.980;2022-09-09T13:01:57;5.80;;;1.80;;
1887;SDS011;944;51.574;6.980;2022-09-09T13:04:25;4.43;;;1.80;;
1887;SDS011;944;51.574;6.980;2022-09-09T13:10:20;3.70;;;1.60;;
1887;SDS011;944;51.574;6.980;2022-09-09T13:12:52;3.10;;;1.50;;
1887;SDS011;944;51.574;6.980;2022-09-09T13:15:21;4.00;;;1.63;;
1887;SDS011;944;51.574;6.980;2022-09-09T13:17:52;7.27;;;1.77;;
1887;SDS011;944;51.574;6.980;2022-09-09T13:20:22;8.70;;;2.63;;
1887;SDS011;944;51.574;6.980;2022-09-09T13:22:51;3.17;;;1.63;;
1887;SDS011;944;51.574;6.980;2022-09-09T13:25:23;1.60;;;1.50;;
1887;SDS011;944;51.574;6.980;2022-09-09T13:27:53;9.53;;;2.00;;
1887;SDS011;944;51.574;6.980;2022-09-09T13:30:26;3.40;;;1.77;;
1887;SDS011;944;51.574;6.980;2022-09-09T13:32:59;3.17;;;1.73;;
1887;SDS011;944;51.574;6.980;2022-09-09T13:35:32;3.90;;;2.10;;
1887;SDS011;944;51.574;6.980;2022-09-09T13:38:06;6.57;;;1.83;;
1887;SDS011;944;51.574;6.980;2022-09-09T13:40:35;5.20;;;1.97;;
1887;SDS011;944;51.574;6.980;2022-09-09T13:43:03;4.37;;;1.73;;
1887;SDS011;944;51.574;6.980;2022-09-09T13:45:31;3.77;;;1.60;;
1887;SDS011;944;51.574;6.980;2022-09-09T13:47:59;4.43;;;1.70;;
1887;SDS011;944;51.574;6.980;2022-09-09T13:50:37;3.40;;;1.53;;
1887;SDS011;944;51.574;6.980;2022-09-09T13:53:04;5.57;;;1.67;;
1887;SDS011;944;51.574;6.980;2022-09-09T13:55:30;5.13;;;1.83;;
1887;SDS011;944;51.574;6.980;2022-09-09T13:57:58;6.20;;;1.90;;
1887;SDS011;944;51.574;6.980;2022-09-09T14:00:29;3.00;;;1.90;;
1887;SDS011;944;51.574;6.980;2022-09-09T14:06:55;7.83;;;2.00;;
1887;SDS011;944;51.574;6.980;2022-09-09T14:09:23;3.03;;;2.10;;
1887;SDS011;944;51.574;6.980;2022-09-09T14:11:50;8.03;;;3.10;;
1887;SDS011;944;51.574;6.980;2022-09-09T14:14:36;7.10;;;2.43;;
1887;SDS011;944;51.574;6.980;2022-09-09T14:17:05;5.87;;;2.23;;
1887;SDS011;944;51.574;6.980;2022-09-09T14:19:36;5.77;;;2.50;;
1887;SDS011;944;51.574;6.980;2022-09-09T14:22:08;8.13;;;2.30;;
1887;SDS011;944;51.574;6.980;2022-09-09T14:24:53;10.53;;;2.87;;
1887;SDS011;944;51.574;6.980;2022-09-09T14:27:20;7.60;;;2.10;;
1887;SDS011;944;51.574;6.980;2022-09-09T14:29:47;7.97;;;2.67;;
1887;SDS011;944;51.574;6.980;2022-09-09T14:32:15;5.30;;;2.20;;
1887;SDS011;944;51.574;6.980;2022-09-09T14:34:44;7.67;;;2.40;;
1887;SDS011;944;51.574;6.980;2022-09-09T14:37:11;8.80;;;1.90;;
1887;SDS011;944;51.574;6.980;2022-09-09T14:39:37;4.00;;;1.73;;
1887;SDS011;944;51.574;6.980;2022-09-09T14:42:05;3.87;;;1.73;;
1887;SDS011;944;51.574;6.980;2022-09-09T14:44:33;7.40;;;2.37;;
1887;SDS011;944;51.574;6.980;2022-09-09T14:47:00;5.40;;;2.13;;
1887;SDS011;944;51.574;6.980;2022-09-09T14:49:51;3.97;;;2.10;;
1887;SDS011;944;51.574;6.980;2022-09-09T14:52:53;6.27;;;2.03;;
1887;SDS011;944;51.574;6.980;2022-09-09T14:55:25;9.50;;;2.70;;
1887;SDS011;944;51.574;6.980;2022-09-09T14:57:54;14.53;;;2.97;;
1887;SDS011;944;51.574;6.980;2022-09-09T15:03:10;7.33;;;2.70;;
1887;SDS011;944;51.574;6.980;2022-09-09T15:09:19;10.50;;;2.90;;
1887;SDS011;944;51.574;6.980;2022-09-09T15:11:46;6.87;;;2.30;;
1887;SDS011;944;51.574;6.980;2022-09-09T15:14:13;8.37;;;2.80;;
1887;SDS011;944;51.574;6.980;2022-09-09T15:16:41;4.63;;;2.20;;
1887;SDS011;944;51.574;6.980;2022-09-09T15:19:08;6.60;;;2.10;;
1887;SDS011;944;51.574;6.980;2022-09-09T15:21:35;2.50;;;1.80;;
1887;SDS011;944;51.574;6.980;2022-09-09T15:24:04;7.30;;;1.70;;
1887;SDS011;944;51.574;6.980;2022-09-09T15:26:34;3.93;;;1.50;;
1887;SDS011;944;51.574;6.980;2022-09-09T15:29:03;4.33;;;1.63;;
1887;SDS011;944;51.574;6.980;2022-09-09T15:31:31;2.40;;;1.60;;
1887;SDS011;944;51.574;6.980;2022-09-09T15:33:59;3.13;;;1.50;;
1887;SDS011;944;51.574;6.980;2022-09-09T15:40:09;3.00;;;1.80;;
1887;SDS011;944;51.574;6.980;2022-09-09T15:52:00;5.33;;;2.03;;
1887;SDS011;944;51.574;6.980;2022-09-09T15:54:33;4.10;;;2.70;;
1887;SDS011;944;51.574;6.980;2022-09-09T16:00:52;5.87;;;2.90;;
1887;SDS011;944;51.574;6.980;2022-09-09T16:03:21;6.13;;;3.07;;
1887;SDS011;944;51.574;6.980;2022-09-09T17:15:41;4.70;;;2.43;;
1887;SDS011;944;51.574;6.980;2022-09-09T17:18:09;4.03;;;2.00;;
1887;SDS011;944;51.574;6.980;2022-09-09T17:20:42;3.60;;;2.17;;
1887;SDS011;944;51.574;6.980;2022-09-09T17:23:11;4.50;;;2.40;;
1887;SDS011;944;51.574;6.980;2022-09-09T17:25:40;6.90;;;4.43;;
1887;SDS011;944;51.574;6.980;2022-09-09T17:28:10;6.83;;;2.87;;
1887;SDS011;944;51.574;6.980;2022-09-09T17:30:54;5.00;;;2.70;;
1887;SDS011;944;51.574;6.980;2022-09-09T17:33:43;3.87;;;2.33;;
1887;SDS011;944;51.574;6.980;2022-09-09T17:40:23;4.43;;;3.13;;
1887;SDS011;944;51.574;6.980;2022-09-09T17:47:18;4.40;;;2.37;;
1887;SDS011;944;51.574;6.980;2022-09-09T17:49:54;3.27;;;2.30;;
1887;SDS011;944;51.574;6.980;2022-09-09T17:52:39;6.93;;;2.43;;
1887;SDS011;944;51.574;6.980;2022-09-09T17:55:35;5.73;;;2.23;;
1887;SDS011;944;51.574;6.980;2022-09-09T17:58:52;3.67;;;2.17;;
1887;SDS011;944;51.574;6.980;2022-09-09T18:01:40;8.03;;;2.47;;
1887;SDS011;944;51.574;6.980;2022-09-09T19:55:08;4.97;;;3.27;;
1887;SDS011;944;51.574;6.980;2022-09-09T20:08:39;7.47;;;3.30;;
1887;SDS011;944;51.574;6.980;2022-09-09T20:11:55;9.17;;;3.50;;
1887;SDS011;944;51.574;6.980;2022-09-09T20:14:48;7.67;;;3.43;;
1887;SDS011;944;51.574;6.980;2022-09-09T20:17:18;5.40;;;3.07;;
1887;SDS011;944;51.574;6.980;2022-09-09T20:20:21;7.77;;;2.87;;
1887;SDS011;944;51.574;6.980;2022-09-09T20:22:52;9.57;;;3.53;;
1887;SDS011;944;51.574;6.980;2022-09-09T20:25:43;4.27;;;2.60;;
1887;SDS011;944;51.574;6.980;2022-09-09T20:32:14;7.80;;;3.30;;
1887;SDS011;944;51.574;6.980;2022-09-09T20:43:09;7.80;;;2.80;;
1887;SDS011;944;51.574;6.980;2022-09-09T21:02:41;15.83;;;3.83;;
1887;SDS011;944;51.574;6.980;2022-09-09T21:05:19;8.20;;;4.00;;
1887;SDS011;944;51.574;6.980;2022-09-09T21:07:53;10.57;;;4.67;;
1887;SDS011;944;51.574;6.980;2022-09-09T21:10:27;8.47;;;4.13;;
1887;SDS011;944;51.574;6.980;2022-09-09T21:12:59;10.73;;;4.03;;
1887;SDS011;944;51.574;6.980;2022-09-09T21:15:35;8.03;;;3.70;;
1887;SDS011;944;51.574;6.980;2022-09-09T21:18:14;6.90;;;3.50;;
1887;SDS011;944;51.574;6.980;2022-09-09T21:21:24;13.20;;;4.60;;
1887;SDS011;944;51.574;6.980;2022-09-09T21:24:08;8.77;;;3.90;;
1887;SDS011;944;51.574;6.980;2022-09-09T21:27:04;10.40;;;4.33;;
1887;SDS011;944;51.574;6.980;2022-09-09T21:29:45;8.90;;;4.20;;
1887;SDS011;944;51.574;6.980;2022-09-09T21:32:39;10.67;;;4.40;;
1887;SDS011;944;51.574;6.980;2022-09-09T21:44:19;7.10;;;3.43;;
1887;SDS011;944;51.574;6.980;2022-09-09T21:54:11;6.20;;;3.23;;
1887;SDS011;944;51.574;6.980;2022-09-09T21:56:54;9.23;;;3.47;;
1887;SDS011;944;51.574;6.980;2022-09-09T22:06:37;5.43;;;2.90;;
1887;SDS011;944;51.574;6.980;2022-09-09T22:09:08;7.17;;;3.20;;
1887;SDS011;944;51.574;6.980;2022-09-09T22:15:11;6.20;;;2.70;;
1887;SDS011;944;51.574;6.980;2022-09-09T22:21:11;5.17;;;2.60;;
1887;SDS011;944;51.574;6.980;2022-09-09T22:27:19;5.07;;;2.80;;
1887;SDS011;944;51.574;6.980;2022-09-09T22:30:27;6.93;;;3.13;;
1887;SDS011;944;51.574;6.980;2022-09-09T22:33:32;6.53;;;3.33;;
1887;SDS011;944;51.574;6.980;2022-09-09T22:36:23;8.97;;;3.80;;
1887;SDS011;944;51.574;6.980;2022-09-09T22:42:15;10.10;;;3.80;;
1887;SDS011;944;51.574;6.980;2022-09-09T22:45:17;17.20;;;4.33;;
1887;SDS011;944;51.574;6.980;2022-09-09T22:47:45;23.90;;;4.90;;
1887;SDS011;944;51.574;6.980;2022-09-09T22:50:32;15.53;;;4.97;;
1887;SDS011;944;51.574;6.980;2022-09-09T22:53:19;9.47;;;4.80;;
1887;SDS011;944;51.574;6.980;2022-09-09T22:56:11;17.27;;;4.03;;
1887;SDS011;944;51.574;6.980;2022-09-09T22:59:21;17.97;;;4.17;;
1887;SDS011;944;51.574;6.980;2022-09-09T23:02:03;9.60;;;3.17;;
1887;SDS011;944;51.574;6.980;2022-09-09T23:04:55;9.80;;;2.90;;
1887;SDS011;944;51.574;6.980;2022-09-09T23:07:31;13.60;;;3.80;;
1887;SDS011;944;51.574;6.980;2022-09-09T23:10:34;9.10;;;3.50;;
1887;SDS011;944;51.574;6.980;2022-09-09T23:13:15;7.67;;;3.07;;
1887;SDS011;944;51.574;6.980;2022-09-09T23:19:09;4.87;;;2.70;;
1887;SDS011;944;51.574;6.980;2022-09-09T23:25:57;9.93;;;3.33;;
1887;SDS011;944;51.574;6.980;2022-09-09T23:36:53;9.93;;;3.50;;
1887;SDS011;944;51.574;6.980;2022-09-09T23:39:42;6.17;;;3.40;;
1887;SDS011;944;51.574;6.980;2022-09-09T23:43:29;12.43;;;4.80;;
1887;SDS011;944;51.574;6.980;2022-09-09T23:45:58;11.43;;;4.20;;
1887;SDS011;944;51.574;6.980;2022-09-09T23:48:46;9.07;;;3.80;;
1887;SDS011;944;51.574;6.980;2022-09-09T23:51:34;12.40;;;3.40;;
1887;SDS011;944;51.574;6.980;2022-09-09T23:54:11;6.73;;;3.60;;
1887;SDS011;944;51.574;6.980;2022-09-09T23:56:40;9.13;;;3.53;;
1887;SDS011;944;51.574;6.980;2022-09-09T23:59:19;8.70;;;3.70;;
